Terminal Aerodrome Forecast
Issued by NWS

Home | Current Version | Previous Version | Text Only | Print | Product List | Glossary Off
Versions: 1 2 3 4 5 6 7 8 9 10 11 12 13 14 15 16

278
FTUS43 KGRB 221142
TAFAUW
TAF
KAUW 221142Z 2212/2312 18009KT P6SM BKN040
     FM221400 21010G19KT P6SM SCT030 BKN250
      TEMPO 2216/2220 -SHRA BKN030
     FM222000 31005KT 6SM -SHRA SCT020 BKN045
      TEMPO 2222/2302 3SM +TSRA BKN020CB
     FM230200 35004KT 5SM BR SCT020 BKN070
     FM230700 29005KT P6SM SCT025 BKN120=

USA.gov is the U.S. government's official web portal to all federal, state and local government web resources and services.